Time;durP1;ratioP1;P1;durP2;ratioP2;P2;SDS_P1;SDS_P2;PMS_P1;PMS_P2;Temp;Humidity;BMP_temperature;BMP_pressure;BME280_temperature;BME280_humidity;BME280_pressure;Samples;Min_cycle;Max_cycle;Signal;HPM_P1;HPM_P2
2021/08/07 00:00:53;;;;;;;6.27;5.97;;;17.50;99.90;;;;;;5059092;28;20441;-68
2021/08/07 00:03:20;;;;;;;6.30;5.90;;;17.50;99.90;;;;;;5060856;28;20468;-68
2021/08/07 00:05:47;;;;;;;5.87;5.47;;;17.50;99.90;;;;;;5062724;28;20848;-67
2021/08/07 00:08:13;;;;;;;6.33;5.87;;;17.50;99.90;;;;;;5061047;28;20454;-68
2021/08/07 00:10:40;;;;;;;6.13;5.70;;;17.50;99.90;;;;;;5058778;28;20529;-68
2021/08/07 00:13:07;;;;;;;5.73;5.47;;;17.50;99.90;;;;;;5058812;28;20464;-68
2021/08/07 00:15:34;;;;;;;6.47;5.97;;;17.40;99.90;;;;;;5062265;28;20450;-69
2021/08/07 00:18:02;;;;;;;5.50;5.30;;;17.50;99.90;;;;;;5062480;28;20446;-68
2021/08/07 00:20:28;;;;;;;5.50;5.27;;;17.50;99.90;;;;;;5062240;28;20447;-67
2021/08/07 00:22:55;;;;;;;6.47;6.17;;;17.50;99.90;;;;;;5061846;28;20479;-68
2021/08/07 00:25:22;;;;;;;5.40;5.20;;;17.50;99.90;;;;;;5057557;28;20837;-68
2021/08/07 00:27:49;;;;;;;5.73;5.43;;;17.40;99.90;;;;;;5062393;28;20447;-68
2021/08/07 00:30:15;;;;;;;6.17;5.70;;;17.40;99.90;;;;;;5055063;28;20479;-68
2021/08/07 00:32:43;;;;;;;5.27;5.03;;;17.40;99.90;;;;;;5061816;28;20471;-68
2021/08/07 00:35:11;;;;;;;5.47;5.00;;;17.40;99.90;;;;;;5061431;28;20979;-68
2021/08/07 00:37:38;;;;;;;5.70;5.40;;;17.40;99.90;;;;;;5056500;28;20446;-69
2021/08/07 00:40:06;;;;;;;5.10;4.60;;;17.40;99.90;;;;;;5062144;28;20431;-68
2021/08/07 00:42:33;;;;;;;5.23;5.03;;;17.40;99.90;;;;;;5058290;28;20491;-68
2021/08/07 00:44:59;;;;;;;5.10;5.00;;;17.30;99.90;;;;;;5058559;28;20455;-67
2021/08/07 00:47:26;;;;;;;6.10;5.80;;;17.20;99.90;;;;;;5058925;28;20440;-68
2021/08/07 00:49:53;;;;;;;5.23;5.10;;;17.10;99.90;;;;;;5058671;28;20451;-68
2021/08/07 00:52:21;;;;;;;5.00;4.80;;;17.10;99.90;;;;;;5060332;28;20475;-68
2021/08/07 00:54:48;;;;;;;5.03;4.80;;;17.00;99.90;;;;;;5065629;28;20822;-69
2021/08/07 00:57:14;;;;;;;4.60;4.40;;;17.00;99.90;;;;;;5054986;28;20823;-68
2021/08/07 00:59:41;;;;;;;5.27;4.77;;;17.00;99.90;;;;;;5062461;28;20455;-68
2021/08/07 01:02:13;;;;;;;4.73;4.43;;;16.90;99.90;;;;;;5064748;28;20470;-68
2021/08/07 01:04:45;;;;;;;3.80;3.70;;;16.90;99.90;;;;;;5062482;28;20471;-68
2021/08/07 01:07:26;;;;;;;3.57;3.47;;;16.90;99.90;;;;;;5063317;28;20452;-68
2021/08/07 01:10:00;;;;;;;3.37;3.27;;;16.80;99.90;;;;;;5065560;28;20454;-68
2021/08/07 01:12:36;;;;;;;3.70;3.50;;;16.80;99.90;;;;;;5065186;28;20806;-67
2021/08/07 01:15:05;;;;;;;4.17;3.90;;;16.70;99.90;;;;;;5065613;28;20811;-68
2021/08/07 01:17:32;;;;;;;3.90;3.63;;;16.70;99.90;;;;;;5062092;28;20785;-68
2021/08/07 01:20:09;;;;;;;3.77;3.40;;;16.70;99.90;;;;;;5062083;28;20811;-68
2021/08/07 01:22:47;;;;;;;3.90;3.60;;;16.70;99.90;;;;;;5067813;28;20471;-68
2021/08/07 01:25:18;;;;;;;4.97;4.37;;;16.70;99.90;;;;;;5059171;28;20995;-68
2021/08/07 01:27:47;;;;;;;2.93;2.73;;;16.70;99.90;;;;;;5065325;28;20458;-68
2021/08/07 01:30:17;;;;;;;3.47;3.27;;;16.70;99.90;;;;;;5063783;28;20949;-69
2021/08/07 01:32:46;;;;;;;3.53;3.33;;;16.60;99.90;;;;;;5061640;28;20876;-68
2021/08/07 01:35:13;;;;;;;3.90;3.60;;;16.60;99.90;;;;;;5063243;28;20530;-68
2021/08/07 01:37:41;;;;;;;3.50;3.23;;;16.60;99.90;;;;;;5064853;28;20454;-69
2021/08/07 01:40:13;;;;;;;3.73;3.43;;;16.70;99.90;;;;;;5057873;28;20480;-68
2021/08/07 01:42:39;;;;;;;3.20;3.00;;;16.70;99.90;;;;;;5064747;28;20858;-68
2021/08/07 01:45:08;;;;;;;3.47;3.17;;;16.70;99.90;;;;;;5064627;28;20967;-68
2021/08/07 01:47:42;;;;;;;3.37;3.10;;;16.60;99.90;;;;;;5061642;28;20452;-68
2021/08/07 01:50:14;;;;;;;3.53;3.40;;;16.60;99.90;;;;;;5062012;28;20452;-69
2021/08/07 01:52:45;;;;;;;5.67;3.47;;;16.50;99.90;;;;;;5064788;28;20478;-68
2021/08/07 01:55:15;;;;;;;3.33;3.03;;;16.50;99.90;;;;;;5067283;28;20459;-68
2021/08/07 01:57:55;;;;;;;3.73;3.50;;;16.40;99.90;;;;;;5065380;28;20500;-68
2021/08/07 02:00:23;;;;;;;3.00;2.80;;;16.40;99.90;;;;;;5068614;28;20537;-68
2021/08/07 02:02:51;;;;;;;2.93;2.73;;;16.40;99.90;;;;;;5061307;28;20467;-68
2021/08/07 02:05:19;;;;;;;2.90;2.70;;;16.40;99.90;;;;;;5067749;28;20478;-68
2021/08/07 02:07:49;;;;;;;4.03;3.33;;;16.40;99.90;;;;;;5061191;28;20502;-68
2021/08/07 02:10:17;;;;;;;3.20;3.00;;;16.40;99.90;;;;;;5062736;28;20456;-67
2021/08/07 02:12:45;;;;;;;3.80;3.70;;;16.40;99.90;;;;;;5064748;28;20467;-68
2021/08/07 02:15:13;;;;;;;3.40;3.20;;;16.40;99.90;;;;;;5061946;28;20452;-68
2021/08/07 02:17:42;;;;;;;3.40;3.10;;;16.40;99.90;;;;;;5064333;28;20454;-68
2021/08/07 02:20:13;;;;;;;3.53;3.23;;;16.40;99.90;;;;;;5063534;28;20448;-68
2021/08/07 02:22:40;;;;;;;3.87;3.57;;;16.30;99.90;;;;;;5060664;28;20464;-69
2021/08/07 02:25:07;;;;;;;3.83;3.53;;;16.30;99.90;;;;;;5057422;28;20448;-68
2021/08/07 02:27:35;;;;;;;3.57;3.27;;;16.30;99.90;;;;;;5064616;28;20447;-68
2021/08/07 02:30:02;;;;;;;3.77;3.57;;;16.30;99.90;;;;;;5064463;28;20447;-68
2021/08/07 02:32:30;;;;;;;3.70;3.50;;;16.20;99.90;;;;;;5060749;28;20495;-68
2021/08/07 02:34:58;;;;;;;4.17;3.50;;;16.30;99.90;;;;;;5060857;28;20452;-69
2021/08/07 02:37:25;;;;;;;3.80;3.67;;;16.30;99.90;;;;;;5063444;28;20444;-67
2021/08/07 02:39:52;;;;;;;3.70;3.47;;;16.30;99.90;;;;;;5064021;28;20447;-69
2021/08/07 02:42:20;;;;;;;4.60;4.30;;;16.30;99.90;;;;;;5061294;28;20464;-67
2021/08/07 02:44:47;;;;;;;3.50;3.30;;;16.30;99.90;;;;;;5060558;28;20885;-68
2021/08/07 02:47:14;;;;;;;4.33;4.03;;;16.30;99.90;;;;;;5061615;28;20444;-67
2021/08/07 02:49:41;;;;;;;4.13;3.93;;;16.30;99.90;;;;;;5065626;28;20451;-68
2021/08/07 02:52:09;;;;;;;4.00;3.80;;;16.30;99.90;;;;;;5061152;28;20479;-68
2021/08/07 02:54:36;;;;;;;3.80;3.60;;;16.30;99.90;;;;;;5056486;28;20453;-68
2021/08/07 02:57:04;;;;;;;3.80;3.60;;;16.30;99.90;;;;;;5066633;28;20459;-68
2021/08/07 02:59:30;;;;;;;3.87;3.77;;;16.20;99.90;;;;;;5060372;28;20444;-69
2021/08/07 03:01:57;;;;;;;4.77;4.33;;;16.20;99.90;;;;;;5060057;28;20468;-68
2021/08/07 03:04:24;;;;;;;4.13;3.93;;;16.20;99.90;;;;;;5062508;28;20451;-67
2021/08/07 03:06:50;;;;;;;5.47;4.20;;;16.20;99.90;;;;;;5063600;28;20489;-67
2021/08/07 03:09:18;;;;;;;4.10;3.90;;;16.20;99.90;;;;;;5061235;28;20925;-68
2021/08/07 03:11:45;;;;;;;3.87;3.67;;;16.20;99.90;;;;;;5059575;28;20484;-68
2021/08/07 03:14:12;;;;;;;6.17;5.77;;;16.20;99.90;;;;;;5061071;28;20452;-68
2021/08/07 03:16:39;;;;;;;4.07;3.77;;;16.20;99.90;;;;;;5063381;28;20451;-68
2021/08/07 03:19:06;;;;;;;4.37;3.97;;;16.10;99.90;;;;;;5062810;28;20929;-68
2021/08/07 03:21:33;;;;;;;4.20;3.80;;;16.10;99.90;;;;;;5059532;28;20937;-68
2021/08/07 03:24:00;;;;;;;3.87;3.67;;;16.10;99.90;;;;;;5063492;28;20444;-68
2021/08/07 03:26:28;;;;;;;4.03;3.73;;;16.20;99.90;;;;;;5059596;28;20448;-67
2021/08/07 03:28:55;;;;;;;4.43;3.90;;;16.20;99.90;;;;;;5059428;28;20452;-68
2021/08/07 03:31:22;;;;;;;4.03;3.80;;;16.20;99.90;;;;;;5061689;28;20495;-68
2021/08/07 03:33:48;;;;;;;4.67;3.73;;;16.20;99.90;;;;;;5062770;28;20463;-68
2021/08/07 03:36:15;;;;;;;4.30;4.00;;;16.20;99.90;;;;;;5061197;28;20451;-68
2021/08/07 03:38:42;;;;;;;4.53;4.13;;;16.20;99.90;;;;;;5059340;28;20945;-68
2021/08/07 03:41:08;;;;;;;4.70;4.40;;;16.20;99.90;;;;;;5059734;28;20949;-68
2021/08/07 03:43:36;;;;;;;5.40;5.10;;;16.20;99.90;;;;;;5062678;28;20863;-68
2021/08/07 03:46:03;;;;;;;4.40;4.10;;;16.20;99.90;;;;;;5062496;28;20448;-68
2021/08/07 03:48:30;;;;;;;5.73;4.70;;;16.20;99.90;;;;;;5059264;28;20446;-67
2021/08/07 03:50:56;;;;;;;4.87;4.57;;;16.20;99.90;;;;;;5059050;28;20451;-66
2021/08/07 03:53:24;;;;;;;5.00;3.77;;;16.20;99.90;;;;;;5060286;28;20460;-68
2021/08/07 03:55:51;;;;;;;5.13;4.73;;;16.20;99.90;;;;;;5060698;28;20454;-68
2021/08/07 03:58:17;;;;;;;5.50;4.00;;;16.10;99.90;;;;;;5060453;28;20956;-68
2021/08/07 04:00:46;;;;;;;4.33;4.03;;;16.10;99.90;;;;;;5059347;28;20451;-67
2021/08/07 04:03:13;;;;;;;4.07;3.77;;;16.10;99.90;;;;;;5059979;28;20491;-67
2021/08/07 04:05:39;;;;;;;5.00;4.70;;;16.10;99.90;;;;;;5059176;28;20456;-68
2021/08/07 04:08:09;;;;;;;4.17;3.87;;;16.10;99.90;;;;;;5059154;28;20448;-68
2021/08/07 04:10:36;;;;;;;6.47;3.73;;;16.00;99.90;;;;;;5058981;28;20537;-69
2021/08/07 04:13:03;;;;;;;3.53;3.23;;;16.10;99.90;;;;;;5059311;28;20567;-67
2021/08/07 04:15:30;;;;;;;4.50;4.07;;;16.10;99.90;;;;;;5059570;28;20957;-66
2021/08/07 04:17:58;;;;;;;3.83;3.60;;;16.20;99.90;;;;;;5059200;28;20784;-66
2021/08/07 04:20:25;;;;;;;3.97;3.67;;;16.30;99.90;;;;;;5059678;28;20803;-67
2021/08/07 04:22:52;;;;;;;4.43;3.93;;;16.50;99.90;;;;;;5057554;28;20466;-68
2021/08/07 04:25:19;;;;;;;8.33;4.60;;;16.70;99.90;;;;;;5060858;28;20455;-67
2021/08/07 04:27:46;;;;;;;5.27;4.90;;;16.80;99.90;;;;;;5062274;28;20459;-68
2021/08/07 04:30:13;;;;;;;5.43;5.07;;;16.90;99.90;;;;;;5058914;28;20455;-67
2021/08/07 04:32:40;;;;;;;4.93;4.70;;;16.90;99.90;;;;;;5056580;28;20475;-67
2021/08/07 04:35:10;;;;;;;6.47;5.57;;;16.90;99.90;;;;;;5061490;28;20523;-67
2021/08/07 04:37:48;;;;;;;5.60;5.27;;;17.00;99.90;;;;;;5065942;28;20531;-67
2021/08/07 04:40:15;;;;;;;5.00;4.70;;;17.00;99.90;;;;;;5062783;28;20877;-66
2021/08/07 04:42:51;;;;;;;6.47;5.70;;;17.20;99.90;;;;;;5061828;28;20471;-67
2021/08/07 04:45:21;;;;;;;7.43;5.77;;;17.20;99.90;;;;;;5074431;28;20447;-66
2021/08/07 04:47:56;;;;;;;5.83;5.50;;;17.40;99.90;;;;;;5070412;28;20530;-66
2021/08/07 04:50:25;;;;;;;6.23;5.90;;;17.50;99.90;;;;;;5063291;28;20521;-66
2021/08/07 04:52:53;;;;;;;6.47;6.13;;;17.60;99.90;;;;;;5063466;28;20480;-66
2021/08/07 04:55:21;;;;;;;7.63;7.10;;;17.70;99.90;;;;;;5071409;28;20449;-66
2021/08/07 04:57:48;;;;;;;7.43;7.10;;;17.80;99.90;;;;;;5071235;28;20807;-66
2021/08/07 05:00:24;;;;;;;7.67;7.37;;;17.80;99.90;;;;;;5074816;28;20457;-66
2021/08/07 05:02:51;;;;;;;8.33;7.93;;;17.80;99.90;;;;;;5074450;28;20485;-66
2021/08/07 05:05:19;;;;;;;8.20;7.60;;;17.90;99.90;;;;;;5067416;28;20475;-66
2021/08/07 05:07:48;;;;;;;8.47;8.10;;;17.90;99.90;;;;;;5054786;28;20451;-66
2021/08/07 05:10:15;;;;;;;8.67;8.37;;;17.90;99.90;;;;;;5054744;28;20510;-66
2021/08/07 05:12:42;;;;;;;8.47;8.07;;;17.90;99.90;;;;;;5054370;28;20822;-66
2021/08/07 05:15:10;;;;;;;8.70;8.30;;;18.00;99.90;;;;;;5054550;28;20444;-66
2021/08/07 05:17:37;;;;;;;9.20;8.60;;;18.00;99.90;;;;;;5066475;28;20450;-66
2021/08/07 05:20:05;;;;;;;9.60;9.20;;;18.10;99.90;;;;;;5074075;28;20455;-65
2021/08/07 05:22:32;;;;;;;8.83;8.43;;;18.20;99.90;;;;;;5074194;28;20459;-66
2021/08/07 05:25:00;;;;;;;9.70;9.20;;;18.20;99.90;;;;;;5074538;28;20450;-65
2021/08/07 05:27:26;;;;;;;9.20;8.60;;;18.20;99.90;;;;;;5074505;28;20450;-65
2021/08/07 05:29:53;;;;;;;9.33;8.87;;;18.10;99.90;;;;;;5060934;28;20825;-65
2021/08/07 05:32:20;;;;;;;9.70;9.20;;;18.20;99.90;;;;;;5054187;28;20864;-66
2021/08/07 05:34:46;;;;;;;10.93;10.53;;;18.20;99.90;;;;;;5054399;28;20535;-65
2021/08/07 05:37:13;;;;;;;10.70;10.40;;;18.30;99.90;;;;;;5059366;28;20458;-65
2021/08/07 05:39:40;;;;;;;9.67;9.27;;;18.30;99.90;;;;;;5064808;28;20450;-65
2021/08/07 05:42:08;;;;;;;9.43;8.93;;;18.40;99.90;;;;;;5073880;28;20459;-66
2021/08/07 05:44:35;;;;;;;9.10;8.67;;;18.40;99.90;;;;;;5073625;28;20458;-66
2021/08/07 05:47:03;;;;;;;11.77;11.10;;;18.60;99.90;;;;;;5072758;28;20449;-66
2021/08/07 05:49:31;;;;;;;10.03;9.63;;;18.60;99.90;;;;;;5073298;28;20871;-66
2021/08/07 05:52:01;;;;;;;10.50;10.10;;;18.60;99.90;;;;;;5068773;28;20475;-66
2021/08/07 05:54:29;;;;;;;10.70;10.23;;;18.70;99.90;;;;;;5073589;28;20470;-67
2021/08/07 05:56:58;;;;;;;11.60;10.63;;;18.80;99.90;;;;;;5073840;28;20509;-65
2021/08/07 05:59:26;;;;;;;10.97;10.50;;;18.90;99.90;;;;;;5073999;28;20439;-66
2021/08/07 06:01:56;;;;;;;11.00;10.60;;;19.00;99.90;;;;;;5073386;28;20467;-66
2021/08/07 06:04:26;;;;;;;11.23;10.80;;;19.10;99.90;;;;;;5073908;28;20443;-65
2021/08/07 06:06:54;;;;;;;12.67;11.53;;;19.20;99.90;;;;;;5073730;28;20455;-66
2021/08/07 06:09:25;;;;;;;11.87;11.37;;;19.30;99.90;;;;;;5073619;28;21128;-65
2021/08/07 06:11:52;;;;;;;12.40;11.80;;;19.50;99.90;;;;;;5073284;28;20991;-66
2021/08/07 06:14:20;;;;;;;12.80;11.97;;;19.70;99.90;;;;;;5073386;28;20451;-68
2021/08/07 06:16:48;;;;;;;12.30;11.90;;;19.80;99.90;;;;;;5073454;28;20450;-68
2021/08/07 06:19:15;;;;;;;14.30;13.43;;;19.80;99.90;;;;;;5073555;28;20448;-69
2021/08/07 06:21:42;;;;;;;13.23;12.73;;;19.70;99.90;;;;;;5073178;28;20467;-68
2021/08/07 06:24:10;;;;;;;13.40;12.60;;;19.80;99.90;;;;;;5073363;28;20470;-68
2021/08/07 06:26:37;;;;;;;13.50;12.90;;;20.00;99.90;;;;;;5073238;28;20535;-68
2021/08/07 06:29:05;;;;;;;13.57;13.07;;;20.00;99.90;;;;;;5073120;28;20530;-66
2021/08/07 06:31:31;;;;;;;14.50;13.80;;;20.10;99.90;;;;;;5072962;28;20439;-67
2021/08/07 06:34:00;;;;;;;15.37;14.37;;;20.20;99.90;;;;;;5073079;28;20439;-67
2021/08/07 06:36:26;;;;;;;14.57;13.97;;;20.30;99.90;;;;;;5073148;28;20508;-67
2021/08/07 06:38:53;;;;;;;14.77;14.23;;;20.40;99.90;;;;;;5073055;28;20454;-67
2021/08/07 06:41:19;;;;;;;14.90;14.10;;;20.50;99.90;;;;;;5072735;28;20473;-67
2021/08/07 06:43:46;;;;;;;15.00;14.30;;;20.60;99.90;;;;;;5072954;28;20467;-65
2021/08/07 06:46:14;;;;;;;14.53;13.93;;;20.50;99.90;;;;;;5072810;28;20450;-65
2021/08/07 06:48:41;;;;;;;15.00;14.30;;;20.40;99.90;;;;;;5072774;28;20542;-65
2021/08/07 06:51:09;;;;;;;14.60;14.10;;;20.30;99.90;;;;;;5072872;28;20497;-65
2021/08/07 06:53:36;;;;;;;14.90;14.10;;;20.20;99.90;;;;;;5072539;28;20482;-65
2021/08/07 06:56:02;;;;;;;15.70;14.90;;;20.20;99.90;;;;;;5072578;28;20451;-65
2021/08/07 06:58:29;;;;;;;14.27;13.77;;;20.20;99.90;;;;;;5072252;28;20443;-65
2021/08/07 07:00:56;;;;;;;15.33;14.63;;;20.30;99.90;;;;;;5072393;28;20450;-65
2021/08/07 07:03:23;;;;;;;15.33;14.63;;;20.40;99.90;;;;;;5072412;28;20455;-65
2021/08/07 07:05:50;;;;;;;15.17;14.67;;;20.40;99.90;;;;;;5072525;28;20443;-65
2021/08/07 07:08:19;;;;;;;15.70;15.00;;;20.60;99.90;;;;;;5072525;28;20440;-65
2021/08/07 07:10:45;;;;;;;15.60;14.90;;;20.80;99.90;;;;;;5072129;28;20439;-65
2021/08/07 07:13:12;;;;;;;16.40;15.40;;;20.80;99.90;;;;;;5072016;28;20829;-65
2021/08/07 07:15:39;;;;;;;15.83;15.07;;;20.90;99.90;;;;;;5072250;28;20446;-66
2021/08/07 07:18:10;;;;;;;15.40;14.80;;;21.00;99.90;;;;;;5072170;28;20463;-66
2021/08/07 07:20:37;;;;;;;15.73;15.03;;;21.00;99.90;;;;;;5071604;28;20447;-66
2021/08/07 07:23:04;;;;;;;14.90;14.40;;;21.10;99.90;;;;;;5063942;28;20461;-66
2021/08/07 07:25:32;;;;;;;15.27;14.50;;;21.20;99.90;;;;;;5068107;28;21025;-66
2021/08/07 07:27:59;;;;;;;15.00;14.40;;;21.20;99.90;;;;;;5072033;28;20443;-66
2021/08/07 07:30:26;;;;;;;15.23;14.63;;;21.20;99.90;;;;;;5071922;28;20447;-66
2021/08/07 07:32:52;;;;;;;17.00;16.30;;;21.10;99.90;;;;;;5071604;28;20483;-66
2021/08/07 07:35:19;;;;;;;14.40;13.70;;;21.10;99.90;;;;;;5056834;28;20448;-66
2021/08/07 07:37:46;;;;;;;15.60;14.83;;;21.10;99.90;;;;;;5051901;28;20452;-66
2021/08/07 07:40:13;;;;;;;14.80;14.20;;;21.20;99.90;;;;;;5051926;28;20448;-66
2021/08/07 07:42:41;;;;;;;15.20;14.50;;;21.30;99.90;;;;;;5051315;28;20989;-65
2021/08/07 07:45:09;;;;;;;14.70;14.20;;;21.50;99.90;;;;;;5051820;28;20855;-66
2021/08/07 07:47:36;;;;;;;15.00;14.30;;;21.50;99.90;;;;;;5051632;28;20444;-66
2021/08/07 07:50:03;;;;;;;15.00;14.30;;;21.50;99.90;;;;;;5052789;28;20460;-65
2021/08/07 07:52:29;;;;;;;16.00;15.30;;;21.60;99.90;;;;;;5051271;28;20558;-66
2021/08/07 07:54:56;;;;;;;15.10;14.60;;;21.70;99.90;;;;;;5051345;28;20451;-65
2021/08/07 07:57:23;;;;;;;15.67;14.97;;;21.80;99.90;;;;;;5051569;28;20950;-66
2021/08/07 07:59:51;;;;;;;15.03;14.50;;;22.00;99.90;;;;;;5051542;28;20799;-66
2021/08/07 08:02:17;;;;;;;15.67;15.07;;;22.30;99.90;;;;;;5051080;28;20468;-65
2021/08/07 08:04:44;;;;;;;15.07;14.47;;;22.60;99.90;;;;;;5058437;28;20929;-66
2021/08/07 08:07:11;;;;;;;16.40;15.50;;;22.80;99.90;;;;;;5071616;28;20444;-66
2021/08/07 08:09:37;;;;;;;15.80;15.20;;;23.10;99.90;;;;;;5070750;28;20450;-66
2021/08/07 08:12:05;;;;;;;16.10;15.40;;;23.20;99.90;;;;;;5071010;28;20467;-67
2021/08/07 08:14:32;;;;;;;15.53;14.93;;;23.20;99.90;;;;;;5071442;28;20447;-66
2021/08/07 08:17:01;;;;;;;15.47;14.50;;;23.30;99.90;;;;;;5071310;28;20515;-66
2021/08/07 08:19:28;;;;;;;16.43;15.30;;;23.50;99.90;;;;;;5054660;28;20501;-66
2021/08/07 08:21:54;;;;;;;16.70;15.60;;;23.50;99.90;;;;;;5050970;28;20981;-66
2021/08/07 08:24:21;;;;;;;15.87;15.17;;;23.40;99.90;;;;;;5056159;28;20447;-66
2021/08/07 08:26:49;;;;;;;16.23;15.53;;;23.40;99.90;;;;;;5071344;28;20439;-65
2021/08/07 08:29:15;;;;;;;16.50;15.70;;;23.50;99.90;;;;;;5071152;28;20476;-65
2021/08/07 08:31:42;;;;;;;15.40;14.73;;;23.50;99.90;;;;;;5070484;28;20455;-66
2021/08/07 08:34:10;;;;;;;16.20;15.50;;;23.60;99.90;;;;;;5071288;28;20482;-66
2021/08/07 08:36:37;;;;;;;15.33;14.73;;;23.50;99.90;;;;;;5071114;28;20435;-66
2021/08/07 08:39:04;;;;;;;16.10;15.10;;;23.70;99.90;;;;;;5071111;28;20444;-66
2021/08/07 08:41:35;;;;;;;16.80;16.10;;;23.80;99.90;;;;;;5071302;28;20458;-66
2021/08/07 08:44:01;;;;;;;15.07;14.47;;;23.90;99.90;;;;;;5070928;28;20460;-66
2021/08/07 08:46:29;;;;;;;15.93;15.23;;;23.90;99.90;;;;;;5071112;28;20944;-66
2021/08/07 08:48:56;;;;;;;15.57;14.97;;;24.00;99.90;;;;;;5069317;28;21023;-66
2021/08/07 08:51:26;;;;;;;15.77;14.90;;;24.20;99.90;;;;;;5070860;28;20937;-66
2021/08/07 08:53:53;;;;;;;16.07;15.20;;;24.40;99.90;;;;;;5070751;28;20950;-66
2021/08/07 08:56:20;;;;;;;15.77;15.17;;;24.70;99.70;;;;;;5070576;28;20532;-66
2021/08/07 08:58:47;;;;;;;16.30;15.47;;;24.80;98.80;;;;;;5070900;28;20530;-66
2021/08/07 09:01:14;;;;;;;15.63;15.03;;;24.80;99.10;;;;;;5070737;28;20816;-66
2021/08/07 09:03:41;;;;;;;16.43;15.50;;;24.90;98.00;;;;;;5068759;28;20490;-65
2021/08/07 09:06:11;;;;;;;16.33;15.37;;;24.70;96.70;;;;;;5069234;28;20949;-66
2021/08/07 09:08:39;;;;;;;16.00;15.50;;;24.60;96.90;;;;;;5069133;28;20447;-65
2021/08/07 09:11:14;;;;;;;16.17;15.40;;;24.50;97.40;;;;;;5070674;28;20951;-66
2021/08/07 09:13:40;;;;;;;16.37;15.77;;;24.60;97.40;;;;;;5070678;28;20489;-66
2021/08/07 09:16:08;;;;;;;16.57;15.87;;;24.80;96.90;;;;;;5070853;28;20455;-66
2021/08/07 09:18:35;;;;;;;16.20;15.50;;;24.90;96.90;;;;;;5070750;28;20493;-66
2021/08/07 09:21:11;;;;;;;17.60;16.80;;;25.10;96.90;;;;;;5060681;28;20890;-66
2021/08/07 09:23:40;;;;;;;16.30;15.73;;;25.40;96.00;;;;;;5054355;28;20455;-66
2021/08/07 09:26:19;;;;;;;16.40;15.50;;;25.40;95.00;;;;;;5054395;28;20539;-66
2021/08/07 09:28:49;;;;;;;16.23;15.63;;;25.10;95.10;;;;;;5054248;28;20472;-65
2021/08/07 09:31:16;;;;;;;16.33;15.63;;;25.30;95.20;;;;;;5054071;28;20448;-66
2021/08/07 09:33:43;;;;;;;16.50;15.80;;;25.40;94.10;;;;;;5054086;28;20487;-65
2021/08/07 09:36:10;;;;;;;16.23;15.53;;;25.30;92.80;;;;;;5054694;28;20440;-66
2021/08/07 09:38:46;;;;;;;16.30;15.53;;;25.30;93.20;;;;;;5065992;28;20964;-66
2021/08/07 09:41:13;;;;;;;17.03;16.30;;;25.50;93.10;;;;;;5053993;28;20448;-66
2021/08/07 09:43:46;;;;;;;16.50;15.67;;;25.60;93.50;;;;;;5053951;28;20472;-68
2021/08/07 09:46:14;;;;;;;16.70;15.90;;;25.60;93.50;;;;;;5054109;28;20451;-66
2021/08/07 09:48:43;;;;;;;16.67;15.93;;;25.40;93.30;;;;;;5054075;28;20452;-66
2021/08/07 09:51:22;;;;;;;16.40;15.90;;;24.90;94.30;;;;;;5053780;28;20444;-66
2021/08/07 09:54:04;;;;;;;16.43;14.97;;;25.00;89.40;;;;;;5054640;28;20496;-66
2021/08/07 09:56:43;;;;;;;15.80;14.97;;;25.00;85.10;;;;;;5054016;28;20444;-66
2021/08/07 09:59:10;;;;;;;16.20;15.40;;;25.40;84.30;;;;;;5053888;28;20448;-66
2021/08/07 10:01:37;;;;;;;17.10;16.40;;;25.70;83.50;;;;;;5063468;28;20493;-67
2021/08/07 10:04:05;;;;;;;17.37;16.50;;;25.80;83.10;;;;;;5073569;28;20446;-66
2021/08/07 10:06:33;;;;;;;15.53;14.93;;;26.10;82.40;;;;;;5073869;28;20447;-66
2021/08/07 10:09:01;;;;;;;16.53;15.93;;;26.20;80.10;;;;;;5071643;28;20456;-67
2021/08/07 10:11:29;;;;;;;15.83;15.23;;;26.30;76.30;;;;;;5074140;28;20447;-66
2021/08/07 10:13:56;;;;;;;16.50;15.90;;;25.90;76.10;;;;;;5073428;28;20887;-67
2021/08/07 10:16:24;;;;;;;15.37;14.90;;;25.80;77.90;;;;;;5073425;28;20439;-66
2021/08/07 10:18:52;;;;;;;16.30;15.70;;;25.80;79.40;;;;;;5057778;28;20452;-66
2021/08/07 10:21:19;;;;;;;15.60;14.93;;;25.90;77.20;;;;;;5054499;28;20935;-66
2021/08/07 10:23:47;;;;;;;17.77;16.80;;;25.70;76.40;;;;;;5054938;28;20468;-64
2021/08/07 10:26:19;;;;;;;16.43;15.63;;;25.40;75.70;;;;;;5056346;28;20448;-64
2021/08/07 10:28:49;;;;;;;16.13;15.47;;;25.50;76.50;;;;;;5053915;28;20813;-66
2021/08/07 10:31:20;;;;;;;15.70;15.00;;;25.70;80.00;;;;;;5054095;28;20440;-66
2021/08/07 10:33:51;;;;;;;15.97;15.47;;;26.00;74.90;;;;;;5053586;28;20484;-67
2021/08/07 10:36:18;;;;;;;16.07;15.50;;;26.40;72.40;;;;;;5055724;28;21043;-66
2021/08/07 10:38:47;;;;;;;17.00;16.00;;;26.70;71.80;;;;;;5055596;28;20451;-65
2021/08/07 10:41:13;;;;;;;16.70;16.10;;;26.70;70.10;;;;;;5059682;28;21286;-65
2021/08/07 10:43:42;;;;;;;16.70;16.20;;;26.60;68.10;;;;;;5058965;28;20472;-66
2021/08/07 10:46:10;;;;;;;17.10;16.50;;;27.00;67.60;;;;;;5057917;28;20452;-65
2021/08/07 10:48:39;;;;;;;16.83;16.23;;;27.60;66.80;;;;;;5056203;28;20448;-65
2021/08/07 10:51:35;;;;;;;17.30;16.60;;;27.90;62.50;;;;;;5052756;28;20444;-65
2021/08/07 10:54:05;;;;;;;17.43;16.73;;;27.80;62.10;;;;;;5057488;28;20563;-64
2021/08/07 10:56:40;;;;;;;16.57;15.90;;;27.50;59.90;;;;;;5054451;28;20456;-64
2021/08/07 10:59:24;;;;;;;17.20;16.40;;;27.00;61.20;;;;;;5052649;28;20482;-65
2021/08/07 11:01:52;;;;;;;16.67;16.17;;;26.60;62.80;;;;;;5052261;28;20478;-65
2021/08/07 11:04:24;;;;;;;16.57;15.97;;;25.80;65.50;;;;;;5067807;28;20443;-65
2021/08/07 11:06:56;;;;;;;16.83;16.20;;;25.70;65.00;;;;;;5072622;28;20517;-64
2021/08/07 11:09:28;;;;;;;16.50;15.87;;;25.50;64.40;;;;;;5061588;28;21084;-65
2021/08/07 11:12:19;;;;;;;17.03;16.40;;;25.30;66.30;;;;;;5052164;28;20525;-64
2021/08/07 11:14:52;;;;;;;16.30;15.70;;;24.90;66.60;;;;;;5054515;28;20480;-65
2021/08/07 11:17:45;;;;;;;17.87;16.97;;;24.70;68.20;;;;;;5056784;28;20455;-65
2021/08/07 11:20:15;;;;;;;18.30;17.40;;;24.70;68.80;;;;;;5057107;28;20448;-65
2021/08/07 11:23:15;;;;;;;17.17;16.47;;;24.70;69.10;;;;;;5054792;28;21016;-65
2021/08/07 11:26:06;;;;;;;15.80;15.30;;;24.80;69.50;;;;;;5053699;28;20451;-66
2021/08/07 11:28:54;;;;;;;16.40;15.80;;;25.20;68.70;;;;;;5052513;28;20975;-64
2021/08/07 11:31:23;;;;;;;16.50;15.83;;;25.70;66.10;;;;;;5051881;28;20445;-66
2021/08/07 11:34:25;;;;;;;16.10;15.40;;;26.10;65.40;;;;;;5051747;28;20924;-65
2021/08/07 11:37:21;;;;;;;15.73;15.13;;;26.60;62.90;;;;;;5052026;28;20439;-66
2021/08/07 11:40:17;;;;;;;16.13;15.63;;;27.20;61.80;;;;;;5051925;28;20444;-65
2021/08/07 11:42:50;;;;;;;16.30;15.80;;;27.60;58.30;;;;;;4971593;28;20463;-66
2021/08/07 11:45:21;;;;;;;17.00;16.40;;;27.90;57.50;;;;;;5050006;28;20447;-66
2021/08/07 11:47:52;;;;;;;16.80;16.20;;;28.20;56.60;;;;;;5071940;28;20797;-68
2021/08/07 11:50:19;;;;;;;16.97;16.33;;;28.70;56.80;;;;;;5072451;28;20451;-71
2021/08/07 11:52:46;;;;;;;16.80;16.20;;;29.10;57.30;;;;;;5071825;28;20900;-69
2021/08/07 11:55:13;;;;;;;17.70;16.93;;;29.60;55.80;;;;;;5072453;28;20509;-70
2021/08/07 11:57:39;;;;;;;18.53;17.83;;;30.20;54.40;;;;;;5066354;28;20475;-71
2021/08/07 12:00:24;;;;;;;19.13;18.30;;;32.80;51.90;;;;;;5052477;28;20467;-72
2021/08/07 12:02:59;;;;;;;18.30;17.60;;;35.00;44.60;;;;;;5062513;28;20478;-70
2021/08/07 12:05:27;;;;;;;18.63;17.92;;;36.30;41.30;;;;;;5072004;28;20203;-71
2021/08/07 12:08:09;;;;;;;19.80;18.90;;;39.20;37.90;;;;;;5073930;28;20200;-71
2021/08/07 12:10:38;;;;;;;19.38;18.67;;;41.50;33.00;;;;;;5071581;28;20711;-70
2021/08/07 12:13:05;;;;;;;19.27;18.58;;;42.10;30.50;;;;;;5072601;28;20717;-72
2021/08/07 12:15:32;;;;;;;19.20;18.60;;;43.50;28.80;;;;;;5053741;28;20691;-72
2021/08/07 12:18:03;;;;;;;18.48;17.88;;;45.10;27.40;;;;;;5051574;28;20208;-72
2021/08/07 12:20:30;;;;;;;18.70;18.10;;;46.00;26.30;;;;;;5051388;28;20567;-72
2021/08/07 12:23:02;;;;;;;18.50;17.90;;;46.70;25.50;;;;;;5050907;28;20224;-72
2021/08/07 12:25:29;;;;;;;18.30;17.73;;;47.70;24.20;;;;;;5051398;28;20201;-71
2021/08/07 12:28:08;;;;;;;18.92;18.33;;;48.40;23.40;;;;;;5051284;28;20228;-71
2021/08/07 12:30:35;;;;;;;18.55;17.77;;;48.50;22.90;;;;;;5052533;28;20602;-72
2021/08/07 12:33:18;;;;;;;18.15;17.55;;;49.60;22.70;;;;;;5050687;28;20225;-71
2021/08/07 12:35:45;;;;;;;18.88;18.27;;;48.80;22.30;;;;;;5051213;28;20228;-72
2021/08/07 12:38:16;;;;;;;20.45;19.55;;;49.00;22.30;;;;;;5051209;28;20208;-72
2021/08/07 12:40:44;;;;;;;18.55;17.95;;;50.60;22.30;;;;;;5051268;28;20201;-74
2021/08/07 12:43:11;;;;;;;17.88;17.02;;;52.40;21.20;;;;;;5050668;28;20233;-72
2021/08/07 12:45:38;;;;;;;18.40;17.75;;;47.80;21.10;;;;;;5050998;28;20689;-71